Time;durP1;ratioP1;P1;durP2;ratioP2;P2;SDS_P1;SDS_P2;PMS_P1;PMS_P2;Temp;Humidity;BMP_temperature;BMP_pressure;BME280_temperature;BME280_humidity;BME280_pressure;Samples;Min_cycle;Max_cycle;Signal;HPM_P1;HPM_P2
2023/02/18 00:00:43;;;;;;;2.65;2.55;;;12.10;99.90;;;12.59;89.96;98795.41;5208764;28;20299;-81
2023/02/18 00:03:16;;;;;;;2.78;2.58;;;12.00;99.90;;;12.61;89.51;98788.69;5215355;28;20743;-80
2023/02/18 00:05:50;;;;;;;2.90;2.70;;;12.00;99.90;;;12.53;89.48;98783.84;5221133;28;20645;-79
2023/02/18 00:08:24;;;;;;;2.50;2.30;;;12.00;99.90;;;12.51;90.13;98785.47;5213691;28;21199;-78
2023/02/18 00:10:57;;;;;;;2.45;2.25;;;12.00;99.90;;;12.53;89.41;98784.75;5212804;28;20205;-80
2023/02/18 00:13:32;;;;;;;2.38;2.17;;;12.00;99.90;;;12.55;89.13;98780.59;5212656;28;20257;-79
2023/02/18 00:16:07;;;;;;;2.13;2.00;;;11.90;99.90;;;12.51;89.36;98776.06;5210314;28;20491;-79
2023/02/18 00:18:41;;;;;;;2.17;1.90;;;12.00;99.90;;;12.52;88.62;98775.28;5221166;28;20941;-81
2023/02/18 00:21:15;;;;;;;2.20;2.10;;;12.00;99.90;;;12.66;88.24;98785.53;5215067;28;20198;-80
2023/02/18 00:23:48;;;;;;;2.20;2.08;;;12.00;99.90;;;12.71;87.63;98774.78;5215208;28;20286;-79
2023/02/18 00:26:22;;;;;;;2.30;2.20;;;12.20;99.90;;;12.67;87.45;98777.94;5216384;28;20255;-81
2023/02/18 00:28:57;;;;;;;1.90;1.80;;;12.10;99.90;;;12.70;87.65;98782.38;5218432;28;20208;-82
2023/02/18 00:31:32;;;;;;;2.25;2.15;;;12.10;99.90;;;12.66;87.60;98771.03;5236786;28;20235;-78
2023/02/18 00:34:06;;;;;;;2.08;1.98;;;12.00;99.90;;;12.68;86.72;98761.78;5219677;28;20772;-80
2023/02/18 00:36:40;;;;;;;2.17;2.08;;;12.10;99.90;;;12.69;86.61;98765.22;5208312;28;20233;-80
2023/02/18 00:39:13;;;;;;;2.15;2.05;;;12.10;99.90;;;12.57;86.86;98768.78;5217013;28;20197;-81
2023/02/18 00:41:46;;;;;;;2.05;1.85;;;12.10;99.90;;;12.65;86.47;98756.44;5213570;28;20744;-82
2023/02/18 00:44:21;;;;;;;2.38;2.28;;;12.10;99.90;;;12.62;86.69;98744.31;5212701;28;21532;-81
2023/02/18 00:46:54;;;;;;;2.13;2.03;;;12.10;99.90;;;12.67;86.61;98746.25;5220966;28;20205;-79
2023/02/18 00:49:27;;;;;;;2.00;1.90;;;12.20;99.90;;;12.73;86.87;98749.22;5209923;28;20202;-80
2023/02/18 00:52:00;;;;;;;1.98;1.88;;;12.00;99.90;;;12.70;86.08;98757.59;5210799;28;20272;-80
2023/02/18 00:54:34;;;;;;;2.20;2.10;;;12.10;99.90;;;12.75;86.26;98745.06;5214976;28;20210;-80
2023/02/18 00:57:07;;;;;;;2.17;2.08;;;12.10;99.90;;;12.67;86.46;98751.41;5212362;28;20210;-81
2023/02/18 00:59:42;;;;;;;2.13;2.00;;;12.00;99.90;;;12.75;85.17;98751.09;5215973;28;20265;-80
2023/02/18 01:02:15;;;;;;;2.05;1.95;;;12.10;99.90;;;12.68;85.49;98737.81;5211726;28;20281;-81
2023/02/18 01:04:48;;;;;;;2.13;2.00;;;12.20;99.90;;;12.64;85.45;98739.25;5215705;28;20290;-81
2023/02/18 01:07:21;;;;;;;1.98;1.88;;;12.20;99.90;;;12.69;85.70;98743.00;5215405;28;20197;-80
2023/02/18 01:09:55;;;;;;;1.90;1.80;;;12.10;99.90;;;12.60;86.24;98748.44;5212875;28;20231;-80
2023/02/18 01:12:28;;;;;;;2.22;2.13;;;12.00;99.90;;;12.66;86.57;98760.78;5221560;22;20298;-80
2023/02/18 01:15:03;;;;;;;1.85;1.80;;;11.90;99.90;;;12.59;86.63;98766.28;5212964;28;20691;-79
2023/02/18 01:17:36;;;;;;;2.40;2.20;;;11.80;99.90;;;12.62;86.50;98772.53;5220321;28;20288;-77
2023/02/18 01:20:12;;;;;;;2.42;2.22;;;11.90;99.90;;;12.55;87.16;98772.03;5223029;28;20205;-79
2023/02/18 01:22:45;;;;;;;1.90;1.80;;;11.80;99.90;;;12.68;86.38;98778.84;5209988;28;20257;-81
2023/02/18 01:25:18;;;;;;;2.10;2.00;;;11.90;99.90;;;12.71;85.64;98768.78;5194821;28;20706;-80
2023/02/18 01:27:52;;;;;;;2.00;1.90;;;11.90;99.90;;;12.60;85.59;98768.09;5195092;28;20248;-81
2023/02/18 01:30:26;;;;;;;1.98;1.90;;;11.90;99.90;;;12.58;85.91;98762.84;5194852;28;20241;-80
2023/02/18 01:33:00;;;;;;;2.22;2.10;;;11.90;99.90;;;12.84;85.63;98756.78;5193520;28;20221;-82
2023/02/18 01:35:34;;;;;;;2.05;1.95;;;11.90;99.90;;;12.81;85.66;98766.84;5198141;28;20707;-80
2023/02/18 01:38:07;;;;;;;2.15;2.05;;;12.00;99.90;;;12.82;84.47;98760.97;5199375;28;20229;-78
2023/02/18 01:40:47;;;;;;;2.33;2.13;;;12.00;99.90;;;12.73;84.71;98760.34;5198081;28;20202;-81
2023/02/18 01:43:21;;;;;;;2.45;2.35;;;12.00;99.90;;;12.78;85.24;98763.22;5197739;28;20317;-82
2023/02/18 01:46:12;;;;;;;1.95;1.85;;;11.90;99.90;;;12.71;85.46;98755.94;5186801;28;20213;-82
2023/02/18 01:48:51;;;;;;;2.17;2.08;;;11.90;99.90;;;12.83;84.68;98749.00;5196758;28;20217;-79
2023/02/18 01:51:28;;;;;;;2.55;2.35;;;12.10;99.90;;;12.77;85.12;98743.50;5193316;28;20546;-78
2023/02/18 01:54:06;;;;;;;2.30;2.20;;;12.10;99.90;;;12.72;85.03;98750.91;5199044;28;20738;-79
2023/02/18 01:56:45;;;;;;;1.77;1.67;;;12.10;99.90;;;12.75;84.67;98747.63;5195950;28;20210;-80
2023/02/18 01:59:25;;;;;;;2.20;2.10;;;12.00;99.90;;;12.73;85.41;98756.91;5189718;28;20799;-81
2023/02/18 02:02:00;;;;;;;2.40;2.30;;;12.00;99.90;;;12.66;85.33;98750.50;5190703;28;20221;-78
2023/02/18 02:04:34;;;;;;;2.17;2.08;;;11.80;99.90;;;12.58;86.01;98742.31;5195036;28;20672;-81
2023/02/18 02:07:07;;;;;;;2.30;2.20;;;11.80;99.90;;;12.67;85.41;98738.56;5198752;28;20305;-80
2023/02/18 02:09:42;;;;;;;2.22;2.13;;;11.80;99.90;;;12.77;84.44;98728.09;5190629;28;20204;-79
2023/02/18 02:12:39;;;;;;;2.20;2.10;;;11.90;99.90;;;12.79;83.85;98740.25;5192922;28;20420;-78
2023/02/18 02:15:30;;;;;;;2.25;2.15;;;12.00;99.90;;;12.75;84.35;98735.69;5198202;28;20724;-80
2023/02/18 02:18:36;;;;;;;2.35;2.25;;;11.90;99.90;;;12.71;84.03;98732.88;5192610;28;20303;-79
2023/02/18 02:22:05;;;;;;;2.20;2.10;;;11.90;99.90;;;12.77;84.39;98725.53;5195231;28;20352;-80
2023/02/18 02:25:13;;;;;;;2.15;2.05;;;11.90;99.90;;;12.65;84.72;98724.75;5196651;28;20202;-82
2023/02/18 02:28:38;;;;;;;2.55;2.35;;;11.80;99.90;;;12.68;84.98;98727.53;5196555;28;20248;-80
2023/02/18 02:31:47;;;;;;;2.05;1.90;;;11.90;99.90;;;12.72;83.82;98720.13;5195871;28;20198;-80
2023/02/18 02:34:50;;;;;;;2.40;2.30;;;11.80;99.90;;;12.74;84.05;98717.66;5193865;28;20684;-79
2023/02/18 02:37:33;;;;;;;2.20;2.10;;;11.90;99.90;;;12.75;84.10;98709.16;5198432;28;20268;-82
2023/02/18 02:40:20;;;;;;;2.28;2.17;;;12.00;99.90;;;12.72;83.86;98714.97;5197232;28;20214;-79
2023/02/18 02:43:06;;;;;;;2.50;2.30;;;12.00;99.90;;;12.68;83.65;98713.03;5194810;28;20236;-80
2023/02/18 02:45:52;;;;;;;2.50;2.40;;;11.90;99.90;;;12.63;83.71;98720.44;5197898;28;20285;-80
2023/02/18 02:48:43;;;;;;;2.45;2.35;;;12.00;99.90;;;12.47;85.20;98715.13;5195419;28;20206;-81
2023/02/18 02:51:22;;;;;;;2.33;2.20;;;11.80;99.90;;;12.60;84.45;98715.09;5201360;28;20206;-81
2023/02/18 02:53:55;;;;;;;2.55;2.33;;;11.80;99.90;;;12.57;84.65;98707.22;5199056;28;20298;-79
2023/02/18 02:56:29;;;;;;;2.50;2.40;;;11.70;99.90;;;12.60;84.75;98694.59;5198416;28;20648;-77
2023/02/18 02:59:07;;;;;;;2.33;2.13;;;11.80;99.90;;;12.52;83.94;98689.78;5195454;28;20304;-79
2023/02/18 03:01:56;;;;;;;2.42;2.22;;;11.90;99.90;;;12.60;83.60;98686.91;5196860;28;20316;-78
2023/02/18 03:04:50;;;;;;;2.42;2.33;;;12.00;99.90;;;12.66;83.13;98682.94;5201278;28;20228;-80
2023/02/18 03:07:53;;;;;;;2.45;2.30;;;12.10;99.90;;;12.68;82.72;98689.94;5201024;28;20198;-79
2023/02/18 03:10:48;;;;;;;2.42;2.22;;;12.00;99.90;;;12.59;83.76;98690.25;5199503;28;20209;-81
2023/02/18 03:13:35;;;;;;;2.30;2.20;;;11.90;99.90;;;12.54;83.60;98693.34;5194045;28;20238;-81
2023/02/18 03:16:23;;;;;;;2.50;2.40;;;11.80;99.90;;;12.49;84.29;98700.72;5197692;28;20206;-81
2023/02/18 03:19:06;;;;;;;2.40;2.30;;;11.80;99.90;;;12.65;82.86;98691.41;5198968;28;20276;-82
2023/02/18 03:21:45;;;;;;;2.58;2.47;;;11.80;99.90;;;12.66;82.59;98688.06;5198101;28;20332;-80
2023/02/18 03:24:26;;;;;;;2.60;2.50;;;11.80;99.90;;;12.71;82.51;98689.25;5197364;28;20197;-80
2023/02/18 03:27:05;;;;;;;2.25;2.15;;;12.00;99.90;;;12.65;82.80;98682.06;5198379;28;20640;-81
2023/02/18 03:29:39;;;;;;;2.40;2.30;;;11.90;99.90;;;12.63;82.37;98683.63;5200983;28;20284;-81
2023/02/18 03:32:17;;;;;;;2.60;2.40;;;11.90;99.90;;;12.55;82.74;98680.59;5196766;28;20662;-79
2023/02/18 03:34:55;;;;;;;2.30;2.10;;;11.80;99.90;;;12.69;81.81;98678.88;5202067;28;20190;-80
2023/02/18 03:37:31;;;;;;;2.67;2.53;;;11.90;99.90;;;12.70;82.09;98680.66;5197196;28;20205;-81
2023/02/18 03:40:08;;;;;;;2.30;2.10;;;12.00;99.90;;;12.69;82.16;98673.75;5200525;28;20229;-81
2023/02/18 03:42:42;;;;;;;2.30;2.20;;;11.90;99.90;;;12.62;82.32;98677.63;5197542;28;20221;-78
2023/02/18 03:45:15;;;;;;;2.40;2.30;;;11.90;99.90;;;12.63;82.75;98670.81;5194701;28;20740;-80
2023/02/18 03:47:48;;;;;;;2.03;1.92;;;11.90;99.90;;;12.64;82.76;98680.28;5197560;28;20307;-79
2023/02/18 03:50:22;;;;;;;2.17;1.98;;;11.80;99.90;;;12.61;82.58;98674.94;5202054;28;20201;-79
2023/02/18 03:52:55;;;;;;;2.10;2.00;;;11.80;99.90;;;12.68;82.58;98683.94;5197149;28;20254;-81
2023/02/18 03:55:30;;;;;;;2.10;2.00;;;11.80;99.90;;;12.65;82.24;98688.84;5198065;28;20437;-80
2023/02/18 03:58:03;;;;;;;2.17;2.08;;;11.90;99.90;;;12.60;82.52;98686.91;5197745;28;20301;-80
2023/02/18 04:00:36;;;;;;;2.10;2.00;;;11.80;99.90;;;12.62;82.72;98677.63;5197123;28;20232;-80
2023/02/18 04:03:09;;;;;;;1.83;1.73;;;11.80;99.90;;;12.61;82.77;98678.41;5196153;28;20217;-80
2023/02/18 04:05:43;;;;;;;2.20;2.10;;;11.80;99.90;;;12.57;82.15;98676.44;5196054;28;20202;-80
2023/02/18 04:08:16;;;;;;;1.98;1.88;;;11.90;99.90;;;12.69;81.87;98678.00;5197466;28;20201;-79
2023/02/18 04:10:50;;;;;;;2.08;1.98;;;12.00;99.90;;;12.64;82.17;98675.13;5199057;28;20202;-81
2023/02/18 04:13:24;;;;;;;2.70;2.05;;;11.90;99.90;;;12.65;82.10;98682.06;5201936;28;20265;-80
2023/02/18 04:15:58;;;;;;;2.30;2.20;;;11.90;99.90;;;12.62;81.65;98685.31;5195708;28;20201;-80
2023/02/18 04:18:31;;;;;;;2.10;2.00;;;11.90;99.90;;;12.66;82.30;98677.81;5199957;28;20241;-80
2023/02/18 04:21:05;;;;;;;2.35;2.15;;;11.90;99.90;;;12.61;82.04;98672.38;5198561;28;20289;-78
2023/02/18 04:23:38;;;;;;;2.13;2.03;;;11.90;99.90;;;12.53;82.79;98665.88;5198845;28;20225;-82
2023/02/18 04:26:13;;;;;;;2.33;2.20;;;11.80;99.90;;;12.68;81.73;98665.97;5199180;28;20284;-82
2023/02/18 04:28:46;;;;;;;2.00;1.90;;;11.80;99.90;;;12.74;81.79;98676.63;5198113;28;20280;-82
2023/02/18 04:31:19;;;;;;;2.05;1.95;;;11.90;99.90;;;12.73;81.50;98660.31;5199283;28;20225;-82
2023/02/18 04:33:53;;;;;;;1.92;1.85;;;12.00;99.90;;;12.62;82.20;98667.38;5196695;28;20634;-80
2023/02/18 04:36:26;;;;;;;1.90;1.80;;;11.90;99.90;;;12.62;81.96;98664.81;5200314;28;20732;-81
2023/02/18 04:38:59;;;;;;;1.67;1.67;;;11.90;99.90;;;12.56;82.20;98667.00;5198621;28;20769;-81
2023/02/18 04:41:34;;;;;;;2.10;2.00;;;11.80;99.90;;;12.58;81.69;98655.13;5197698;28;20226;-79
2023/02/18 04:44:07;;;;;;;2.10;2.00;;;11.80;99.90;;;12.60;82.10;98653.56;5201614;28;20201;-79
2023/02/18 04:46:40;;;;;;;1.80;1.80;;;11.80;99.90;;;12.61;81.27;98654.44;5204615;28;20198;-81
2023/02/18 04:49:14;;;;;;;2.20;2.10;;;11.80;99.90;;;12.57;82.11;98665.31;5199194;28;20583;-80
2023/02/18 04:51:47;;;;;;;1.70;1.60;;;11.80;99.90;;;12.63;81.69;98658.88;5203216;28;20228;-80
2023/02/18 04:54:20;;;;;;;1.75;1.70;;;11.80;99.90;;;12.61;81.03;98655.31;5199797;28;20665;-80
2023/02/18 04:56:55;;;;;;;2.00;1.90;;;11.80;99.90;;;12.66;81.02;98659.88;5201118;28;20203;-78
2023/02/18 04:59:28;;;;;;;2.25;2.15;;;11.90;99.90;;;12.67;80.65;98659.06;5201541;28;20691;-80
2023/02/18 05:02:01;;;;;;;2.03;1.92;;;11.90;99.90;;;12.53;80.71;98664.25;5196492;28;20261;-80
2023/02/18 05:04:35;;;;;;;1.90;1.80;;;12.00;99.90;;;12.35;82.20;98657.94;5197983;28;20289;-78
2023/02/18 05:07:08;;;;;;;2.22;2.03;;;11.70;99.90;;;12.56;80.19;98658.38;5198129;28;20318;-79
2023/02/18 05:09:41;;;;;;;2.08;1.98;;;12.00;99.90;;;12.50;80.73;98664.03;5197562;28;20214;-79
2023/02/18 05:12:16;;;;;;;2.03;1.85;;;11.90;99.90;;;12.55;81.05;98670.31;5200991;28;20245;-82
2023/02/18 05:14:49;;;;;;;1.95;1.85;;;11.90;99.90;;;12.45;81.50;98657.75;5197595;28;20624;-79
2023/02/18 05:17:22;;;;;;;2.03;1.92;;;11.80;99.90;;;12.53;80.45;98665.88;5193694;28;20209;-80
2023/02/18 05:19:56;;;;;;;2.17;2.08;;;11.90;99.90;;;12.48;81.48;98673.31;5197069;28;20684;-80
2023/02/18 05:22:29;;;;;;;2.30;2.17;;;11.90;99.90;;;12.51;80.44;98678.63;5199546;28;20323;-81
2023/02/18 05:25:02;;;;;;;2.33;2.22;;;11.90;99.90;;;12.46;80.94;98662.06;5201112;28;20214;-79
2023/02/18 05:27:37;;;;;;;2.20;2.00;;;11.80;99.90;;;12.40;81.11;98670.25;5196921;28;20229;-80
2023/02/18 05:30:11;;;;;;;2.15;2.05;;;11.90;99.90;;;12.40;81.29;98674.50;5199988;28;20300;-79
2023/02/18 05:32:45;;;;;;;2.20;2.10;;;11.90;99.90;;;12.48;81.17;98673.31;5197882;28;20227;-79
2023/02/18 05:35:18;;;;;;;2.30;2.20;;;12.00;99.90;;;12.46;80.70;98668.88;5199085;28;20212;-78
2023/02/18 05:37:52;;;;;;;2.00;1.90;;;11.90;99.90;;;12.37;81.22;98664.06;5199957;28;20624;-79
2023/02/18 05:40:25;;;;;;;2.40;2.20;;;11.90;99.90;;;12.35;81.71;98655.38;5197243;28;20301;-79
2023/02/18 05:42:59;;;;;;;2.00;1.90;;;11.90;99.90;;;12.30;82.10;98661.88;5195622;28;20236;-80
2023/02/18 05:45:33;;;;;;;2.20;2.00;;;11.80;99.90;;;12.30;82.06;98655.06;5196657;28;20283;-80
2023/02/18 05:48:06;;;;;;;1.90;1.80;;;11.70;99.90;;;12.36;81.64;98660.63;5193456;28;20709;-80
2023/02/18 05:50:39;;;;;;;2.65;2.50;;;11.70;99.90;;;12.32;82.04;98661.19;5197577;28;20724;-79
2023/02/18 05:53:13;;;;;;;1.90;1.80;;;11.70;99.90;;;12.25;82.43;98653.94;5195264;28;20712;-80
2023/02/18 05:55:49;;;;;;;2.30;2.13;;;11.60;99.90;;;12.26;82.66;98659.94;5198754;28;20209;-81
2023/02/18 05:58:23;;;;;;;2.25;2.15;;;11.70;99.90;;;12.27;82.79;98654.00;5196338;28;20532;-80
2023/02/18 06:00:57;;;;;;;1.85;1.75;;;11.60;99.90;;;12.21;82.98;98657.06;5197634;28;20302;-80
2023/02/18 06:03:30;;;;;;;1.98;1.88;;;11.60;99.90;;;12.30;82.75;98655.06;5194206;28;20339;-79
2023/02/18 06:06:04;;;;;;;1.95;1.85;;;11.70;99.90;;;12.23;83.23;98652.06;5193956;28;20212;-79
2023/02/18 06:08:37;;;;;;;1.80;1.80;;;11.80;99.90;;;12.10;83.69;98652.94;5198868;28;20683;-79
2023/02/18 06:11:10;;;;;;;2.40;2.30;;;11.70;99.90;;;12.15;83.89;98652.44;5195741;28;20712;-79
2023/02/18 06:13:45;;;;;;;2.15;1.95;;;11.60;99.90;;;12.20;83.74;98657.00;5194875;28;20216;-79
2023/02/18 06:16:18;;;;;;;2.10;2.00;;;11.60;99.90;;;12.22;83.51;98652.81;5194040;28;20200;-81
2023/02/18 06:18:52;;;;;;;3.90;2.13;;;11.70;99.90;;;12.24;84.05;98643.56;5196376;28;20202;-81
2023/02/18 06:21:25;;;;;;;2.13;2.03;;;11.70;99.90;;;12.13;84.46;98646.34;5198543;28;20280;-79
2023/02/18 06:23:58;;;;;;;1.95;1.85;;;11.70;99.90;;;12.20;83.88;98639.03;5194207;28;20256;-80
2023/02/18 06:26:32;;;;;;;2.03;1.92;;;11.70;99.90;;;12.18;83.85;98652.63;5200371;28;20260;-80
2023/02/18 06:29:06;;;;;;;2.10;2.00;;;11.70;99.90;;;12.09;84.35;98654.63;5198460;28;20344;-81
2023/02/18 06:31:39;;;;;;;2.58;1.95;;;11.60;99.90;;;12.09;85.06;98658.84;5194467;28;20307;-80
2023/02/18 06:34:13;;;;;;;1.95;1.85;;;11.60;99.90;;;12.10;84.80;98658.06;5197565;28;20210;-82
2023/02/18 06:36:47;;;;;;;2.35;2.08;;;11.50;99.90;;;12.16;84.86;98661.00;5203515;28;20217;-79
2023/02/18 06:39:22;;;;;;;2.10;2.00;;;11.60;99.90;;;12.17;85.75;98660.25;5202682;28;20608;-81
2023/02/18 06:41:56;;;;;;;2.15;2.05;;;11.60;99.90;;;12.18;84.47;98657.75;5197817;28;20225;-82
2023/02/18 06:44:30;;;;;;;2.00;1.90;;;11.60;99.90;;;12.21;84.10;98661.31;5196150;28;20228;-83
2023/02/18 06:47:03;;;;;;;2.10;2.00;;;11.60;99.90;;;12.36;83.41;98659.72;5197787;28;20623;-82
2023/02/18 06:49:37;;;;;;;1.90;1.80;;;11.60;99.90;;;12.33;83.03;98656.94;5203154;28;20233;-83
2023/02/18 06:52:11;;;;;;;2.08;1.98;;;11.60;99.90;;;12.35;83.37;98657.94;5201638;28;20229;-83
2023/02/18 06:54:44;;;;;;;2.38;2.17;;;11.60;99.90;;;12.45;82.68;98672.22;5199863;28;20288;-83
2023/02/18 06:57:17;;;;;;;1.98;1.88;;;11.70;99.90;;;12.35;83.58;98675.88;5199300;28;20697;-83
2023/02/18 06:59:52;;;;;;;2.00;1.90;;;11.60;99.90;;;12.36;83.31;98649.44;5200173;28;20269;-83
2023/02/18 07:02:25;;;;;;;1.92;1.70;;;11.60;99.90;;;12.34;83.81;98653.63;5190202;28;20318;-82
2023/02/18 07:04:59;;;;;;;1.92;1.83;;;11.60;99.90;;;12.42;83.38;98646.38;5197542;28;20221;-83
2023/02/18 07:07:32;;;;;;;2.40;2.20;;;11.60;99.90;;;12.40;83.04;98646.31;5195607;28;20647;-82
2023/02/18 07:10:07;;;;;;;2.15;2.05;;;11.70;99.90;;;12.44;82.56;98637.13;5194313;28;20467;-83
2023/02/18 07:12:40;;;;;;;2.17;2.08;;;11.80;99.90;;;12.36;83.32;98640.09;5198299;28;20616;-83
2023/02/18 07:15:16;;;;;;;2.03;1.92;;;11.80;99.90;;;12.27;83.68;98644.63;5191672;28;20202;-83
2023/02/18 07:17:50;;;;;;;2.05;1.95;;;11.70;99.90;;;12.39;82.41;98644.53;5196791;28;20225;-82
2023/02/18 07:20:23;;;;;;;1.92;1.83;;;11.90;99.90;;;12.43;82.92;98643.94;5204000;28;20232;-82
2023/02/18 07:22:57;;;;;;;2.38;2.17;;;11.90;99.90;;;12.35;83.15;98646.00;5201653;28;20272;-82
2023/02/18 07:25:30;;;;;;;2.17;2.08;;;11.90;99.90;;;12.41;83.43;98645.50;5198933;28;20206;-82
2023/02/18 07:28:04;;;;;;;2.08;1.98;;;11.70;99.90;;;12.39;83.03;98647.09;5201493;28;20241;-82
2023/02/18 07:30:38;;;;;;;2.10;2.00;;;11.70;99.90;;;12.39;82.92;98647.09;5199885;28;20356;-82
2023/02/18 07:33:13;;;;;;;2.20;2.10;;;11.70;99.90;;;12.35;83.72;98645.13;5199406;28;20275;-82
2023/02/18 07:35:46;;;;;;;2.50;2.30;;;11.60;99.90;;;12.44;82.85;98637.13;5201655;28;20284;-82
2023/02/18 07:38:19;;;;;;;2.33;2.13;;;11.70;99.90;;;12.52;82.43;98633.34;5201943;28;20309;-82
2023/02/18 07:40:53;;;;;;;2.28;2.17;;;11.70;99.90;;;12.51;82.24;98622.22;5196979;28;20292;-82
2023/02/18 07:43:26;;;;;;;2.13;2.03;;;11.80;99.90;;;12.58;82.29;98618.34;5200058;28;20693;-82
2023/02/18 07:46:06;;;;;;;2.90;2.60;;;11.90;99.90;;;12.61;81.59;98619.41;5198508;28;20202;-81
2023/02/18 07:48:40;;;;;;;2.17;2.08;;;11.80;99.90;;;12.67;80.87;98620.59;5199754;28;20205;-81
2023/02/18 07:51:13;;;;;;;2.50;2.40;;;12.00;99.90;;;12.53;81.87;98610.38;5199411;28;20194;-82
2023/02/18 07:53:47;;;;;;;2.75;2.50;;;12.10;99.90;;;12.62;81.03;98610.94;5196312;28;20252;-82
2023/02/18 07:56:20;;;;;;;2.58;2.40;;;12.10;99.90;;;12.62;82.02;98605.81;5198918;28;20206;-82
2023/02/18 07:58:54;;;;;;;2.28;2.17;;;12.00;99.90;;;12.61;81.46;98608.28;5199034;28;20214;-82
2023/02/18 08:01:28;;;;;;;2.60;2.40;;;12.00;99.90;;;12.53;81.93;98601.78;5196530;28;20513;-82
2023/02/18 08:04:02;;;;;;;2.35;2.25;;;11.90;99.90;;;12.59;81.81;98603.06;5184119;28;20218;-82
2023/02/18 08:06:38;;;;;;;2.47;2.28;;;12.00;99.90;;;12.62;81.87;98603.25;5198062;28;20202;-82
2023/02/18 08:09:11;;;;;;;2.75;2.20;;;12.10;99.90;;;12.70;81.19;98590.88;5198083;28;20588;-82
2023/02/18 08:11:44;;;;;;;2.38;2.17;;;12.20;99.90;;;12.66;81.71;98612.00;5198192;28;20224;-82
2023/02/18 08:14:18;;;;;;;2.30;2.20;;;12.20;99.90;;;12.70;81.39;98602.81;5192491;28;20800;-82
2023/02/18 08:16:53;;;;;;;2.50;2.30;;;12.10;99.90;;;12.70;80.60;98602.81;5196294;28;20285;-82
2023/02/18 08:19:27;;;;;;;2.72;2.63;;;12.30;99.90;;;12.74;81.44;98597.09;5199056;28;20230;-82
2023/02/18 08:22:02;;;;;;;2.00;1.90;;;12.30;99.90;;;12.75;81.02;98606.56;5197235;28;20236;-82
2023/02/18 08:24:35;;;;;;;2.38;2.05;;;12.30;99.90;;;12.77;80.52;98599.84;5194743;28;20271;-82
2023/02/18 08:27:09;;;;;;;2.42;2.33;;;12.20;99.90;;;12.83;80.31;98595.97;5198931;28;20200;-82
2023/02/18 08:29:42;;;;;;;2.42;2.17;;;12.40;99.90;;;12.82;79.73;98603.56;5198519;28;20684;-81
2023/02/18 08:32:16;;;;;;;2.40;2.30;;;12.40;99.90;;;12.80;80.64;98608.59;5200457;28;20272;-82
2023/02/18 08:34:50;;;;;;;2.20;2.00;;;12.30;99.90;;;12.84;79.59;98602.84;5199716;28;20304;-81
2023/02/18 08:37:24;;;;;;;1.98;1.80;;;12.40;99.90;;;12.84;80.54;98607.97;5199951;28;20202;-81
2023/02/18 08:39:57;;;;;;;2.05;1.95;;;12.40;99.90;;;12.93;79.67;98602.50;5200674;28;20667;-82
2023/02/18 08:42:31;;;;;;;2.58;2.38;;;12.50;99.90;;;13.00;79.84;98593.53;5190117;28;20317;-82
2023/02/18 08:45:05;;;;;;;3.13;2.58;;;12.40;99.90;;;13.01;79.32;98591.03;5199118;28;20212;-82
2023/02/18 08:47:39;;;;;;;2.20;2.10;;;12.40;99.90;;;13.14;78.92;98586.63;5192336;28;20296;-82
2023/02/18 08:50:33;;;;;;;2.58;2.25;;;12.60;99.90;;;13.31;77.66;98580.84;5190090;28;20205;-82
2023/02/18 08:53:06;;;;;;;2.55;2.45;;;12.80;99.90;;;13.38;77.59;98582.94;5187059;28;20468;-82
2023/02/18 08:55:41;;;;;;;3.15;2.95;;;13.00;99.90;;;13.51;76.52;98572.59;5192559;28;20206;-81
2023/02/18 08:58:14;;;;;;;3.20;2.58;;;13.10;99.90;;;13.50;76.91;98577.63;5186684;28;20217;-81
2023/02/18 09:00:47;;;;;;;3.28;2.80;;;13.20;99.90;;;13.61;76.79;98578.25;5195571;28;20650;-82
2023/02/18 09:03:22;;;;;;;3.08;2.88;;;13.10;99.90;;;13.76;75.20;98571.38;5188616;28;20229;-82
2023/02/18 09:05:56;;;;;;;2.40;2.20;;;13.20;99.90;;;13.74;76.11;98573.88;5195421;28;20397;-82
2023/02/18 09:08:29;;;;;;;3.05;2.85;;;13.20;99.90;;;13.70;75.58;98576.19;5192171;28;20206;-82
2023/02/18 09:11:04;;;;;;;3.25;3.05;;;13.30;99.90;;;13.65;75.47;98580.16;5191968;28;20210;-82
2023/02/18 09:13:38;;;;;;;2.60;2.40;;;13.30;99.90;;;13.68;75.63;98572.66;5191072;28;20233;-82
2023/02/18 09:16:16;;;;;;;3.00;2.80;;;13.30;99.90;;;13.60;75.53;98581.63;5201250;28;20209;-82
2023/02/18 09:18:51;;;;;;;2.58;2.38;;;13.20;99.90;;;13.66;76.12;98569.13;5191179;28;20198;-82
2023/02/18 09:21:26;;;;;;;2.55;2.35;;;13.20;99.90;;;13.65;76.10;98562.19;5194768;28;20344;-82
2023/02/18 09:24:00;;;;;;;2.15;2.05;;;13.10;99.90;;;13.71;75.53;98572.84;5188233;28;20263;-82
2023/02/18 09:26:34;;;;;;;3.72;3.28;;;13.20;99.90;;;13.72;75.66;98569.47;5190538;28;20252;-81
2023/02/18 09:29:07;;;;;;;2.80;2.60;;;13.30;99.90;;;13.76;75.27;98566.25;5200021;28;20295;-79
2023/02/18 09:31:40;;;;;;;2.65;2.00;;;13.30;99.90;;;13.86;74.42;98568.53;5200481;28;20226;-79
2023/02/18 09:34:15;;;;;;;2.53;2.38;;;13.40;99.90;;;13.88;75.27;98566.06;5198116;28;20574;-80
2023/02/18 09:36:48;;;;;;;2.22;2.13;;;13.30;99.90;;;13.94;74.83;98569.84;5193263;28;20213;-80
2023/02/18 09:39:22;;;;;;;2.75;2.28;;;13.50;99.90;;;13.96;73.86;98565.69;5195951;28;20233;-79
2023/02/18 09:41:58;;;;;;;2.60;2.40;;;13.60;99.90;;;14.06;74.43;98546.50;5197111;28;21111;-79
2023/02/18 09:44:37;;;;;;;2.25;2.15;;;13.60;99.90;;;14.16;74.19;98537.59;5196774;28;20678;-80
2023/02/18 09:47:18;;;;;;;2.08;1.98;;;13.60;99.90;;;14.33;72.44;98547.09;5197758;28;20244;-79
2023/02/18 09:49:57;;;;;;;2.55;2.45;;;13.80;99.90;;;14.45;71.36;98551.13;5197264;28;20279;-78
2023/02/18 09:52:35;;;;;;;2.25;2.10;;;13.90;99.90;;;14.48;71.68;98534.19;5197648;28;20684;-79
2023/02/18 09:55:19;;;;;;;2.38;2.28;;;14.10;99.90;;;14.48;71.66;98546.13;5197399;28;20210;-79
2023/02/18 09:57:56;;;;;;;2.20;2.10;;;14.00;99.90;;;14.46;70.77;98537.47;5189646;28;20288;-79
2023/02/18 10:00:34;;;;;;;1.90;1.80;;;14.10;99.90;;;14.50;71.19;98526.53;5194855;28;20245;-79
2023/02/18 10:03:13;;;;;;;2.13;2.00;;;14.20;99.90;;;14.57;70.57;98528.66;5192492;28;20356;-79
2023/02/18 10:05:57;;;;;;;2.10;1.98;;;14.20;99.90;;;14.73;70.42;98531.22;5193992;28;20796;-78
2023/02/18 10:08:35;;;;;;;2.33;1.88;;;14.40;99.90;;;14.81;69.40;98529.91;5196629;28;20571;-80
2023/02/18 10:11:15;;;;;;;2.00;1.90;;;14.50;99.90;;;14.77;69.46;98529.69;5200252;28;20590;-79
2023/02/18 10:13:48;;;;;;;2.00;1.90;;;14.50;99.90;;;14.73;70.00;98533.78;5202276;28;20210;-80
2023/02/18 10:16:24;;;;;;;2.00;1.80;;;14.30;99.90;;;14.71;69.31;98535.41;5200804;28;20252;-79
2023/02/18 10:19:01;;;;;;;2.67;2.10;;;14.40;99.90;;;14.81;69.17;98541.91;5196722;28;20205;-79
2023/02/18 10:21:36;;;;;;;2.35;2.15;;;14.40;99.90;;;14.84;69.66;98535.22;5199339;28;20564;-79
2023/02/18 10:24:30;;;;;;;2.53;2.17;;;14.40;99.90;;;14.98;68.17;98540.19;5202015;28;20624;-79
2023/02/18 10:27:06;;;;;;;3.25;1.92;;;14.50;99.90;;;14.96;68.44;98541.78;5200485;28;20259;-80
2023/02/18 10:29:40;;;;;;;2.17;2.00;;;14.50;99.90;;;15.04;68.16;98543.06;5195651;28;20651;-78
2023/02/18 10:32:22;;;;;;;2.80;2.25;;;14.40;99.90;;;15.03;67.91;98536.16;5200779;28;20248;-79
2023/02/18 10:35:02;;;;;;;2.22;2.03;;;14.40;99.90;;;15.04;68.21;98532.78;5204041;28;20228;-79
2023/02/18 10:37:57;;;;;;;1.90;1.80;;;14.40;99.90;;;15.10;67.63;98530.50;5200571;28;20229;-79
2023/02/18 10:40:46;;;;;;;2.13;1.90;;;14.60;99.90;;;15.13;67.60;98534.94;5195245;28;20677;-79
2023/02/18 10:43:28;;;;;;;3.72;1.92;;;14.60;99.90;;;15.22;67.68;98520.84;5196899;28;20225;-78
2023/02/18 10:46:12;;;;;;;2.05;1.92;;;14.60;99.90;;;15.15;67.95;98529.06;5202242;28;20249;-79
2023/02/18 10:49:04;;;;;;;2.95;2.30;;;14.60;99.90;;;15.20;67.14;98531.88;5201991;28;20216;-79
2023/02/18 10:51:46;;;;;;;2.00;1.90;;;14.60;99.90;;;15.11;66.67;98529.72;5200162;28;20704;-80
2023/02/18 10:54:24;;;;;;;3.72;2.47;;;14.50;99.90;;;15.05;67.27;98527.72;5201498;28;20213;-80
2023/02/18 10:57:03;;;;;;;5.93;2.00;;;14.60;99.90;;;15.05;67.66;98527.72;5197138;28;20648;-79
2023/02/18 10:59:36;;;;;;;2.47;2.10;;;14.60;99.90;;;15.04;67.74;98525.06;5195052;28;20219;-80